sensor_id;sensor_type;location;lat;lon;timestamp;P1;durP1;ratioP1;P2;durP2;ratioP2
8610;SDS011;4343;53.648;10.098;2022-08-01T00:00:10;7.32;;;6.93;;
8610;SDS011;4343;53.648;10.098;2022-08-01T00:02:36;8.20;;;7.72;;
8610;SDS011;4343;53.648;10.098;2022-08-01T00:05:05;7.20;;;6.80;;
8610;SDS011;4343;53.648;10.098;2022-08-01T00:07:33;7.20;;;6.80;;
8610;SDS011;4343;53.648;10.098;2022-08-01T00:09:59;6.90;;;6.57;;
8610;SDS011;4343;53.648;10.098;2022-08-01T00:12:25;7.50;;;7.03;;
8610;SDS011;4343;53.648;10.098;2022-08-01T00:14:51;8.60;;;7.93;;
8610;SDS011;4343;53.648;10.098;2022-08-01T00:17:17;7.45;;;6.97;;
8610;SDS011;4343;53.648;10.098;2022-08-01T00:19:42;6.90;;;6.50;;
8610;SDS011;4343;53.648;10.098;2022-08-01T00:22:08;7.65;;;7.10;;
8610;SDS011;4343;53.648;10.098;2022-08-01T00:24:33;7.07;;;6.68;;
8610;SDS011;4343;53.648;10.098;2022-08-01T00:26:59;6.88;;;6.45;;
8610;SDS011;4343;53.648;10.098;2022-08-01T00:29:24;7.65;;;7.10;;
8610;SDS011;4343;53.648;10.098;2022-08-01T00:31:50;7.50;;;7.10;;
8610;SDS011;4343;53.648;10.098;2022-08-01T00:34:15;7.47;;;7.03;;
8610;SDS011;4343;53.648;10.098;2022-08-01T00:36:41;6.50;;;6.10;;
8610;SDS011;4343;53.648;10.098;2022-08-01T00:39:06;7.05;;;6.60;;
8610;SDS011;4343;53.648;10.098;2022-08-01T00:41:32;7.50;;;7.10;;
8610;SDS011;4343;53.648;10.098;2022-08-01T00:43:58;7.65;;;7.13;;
8610;SDS011;4343;53.648;10.098;2022-08-01T00:46:26;7.07;;;6.68;;
8610;SDS011;4343;53.648;10.098;2022-08-01T00:48:51;7.30;;;6.80;;
8610;SDS011;4343;53.648;10.098;2022-08-01T00:51:18;6.65;;;6.25;;
8610;SDS011;4343;53.648;10.098;2022-08-01T00:53:43;7.38;;;6.88;;
8610;SDS011;4343;53.648;10.098;2022-08-01T00:56:09;7.60;;;7.20;;
8610;SDS011;4343;53.648;10.098;2022-08-01T00:58:35;8.30;;;7.57;;
8610;SDS011;4343;53.648;10.098;2022-08-01T01:01:01;7.35;;;6.82;;
8610;SDS011;4343;53.648;10.098;2022-08-01T01:03:27;6.90;;;6.57;;
8610;SDS011;4343;53.648;10.098;2022-08-01T01:06:10;7.38;;;6.97;;
8610;SDS011;4343;53.648;10.098;2022-08-01T01:08:52;7.75;;;7.25;;
8610;SDS011;4343;53.648;10.098;2022-08-01T01:14:39;7.18;;;6.78;;
8610;SDS011;4343;53.648;10.098;2022-08-01T01:17:11;6.85;;;6.43;;
8610;SDS011;4343;53.648;10.098;2022-08-01T01:19:42;6.97;;;6.57;;
8610;SDS011;4343;53.648;10.098;2022-08-01T01:22:21;6.82;;;6.43;;
8610;SDS011;4343;53.648;10.098;2022-08-01T01:30:14;7.05;;;6.65;;
8610;SDS011;4343;53.648;10.098;2022-08-01T01:32:48;6.45;;;6.13;;
8610;SDS011;4343;53.648;10.098;2022-08-01T01:35:29;7.03;;;6.53;;
8610;SDS011;4343;53.648;10.098;2022-08-01T01:38:04;6.07;;;5.78;;
8610;SDS011;4343;53.648;10.098;2022-08-01T01:40:33;7.32;;;6.72;;
8610;SDS011;4343;53.648;10.098;2022-08-01T01:43:00;6.90;;;6.38;;
8610;SDS011;4343;53.648;10.098;2022-08-01T01:45:26;6.95;;;6.45;;
8610;SDS011;4343;53.648;10.098;2022-08-01T01:47:53;6.80;;;6.30;;
8610;SDS011;4343;53.648;10.098;2022-08-01T01:50:21;8.68;;;7.18;;
8610;SDS011;4343;53.648;10.098;2022-08-01T01:52:48;7.00;;;6.60;;
8610;SDS011;4343;53.648;10.098;2022-08-01T01:55:15;8.55;;;7.50;;
8610;SDS011;4343;53.648;10.098;2022-08-01T01:57:41;7.93;;;6.70;;
8610;SDS011;4343;53.648;10.098;2022-08-01T02:00:09;6.60;;;6.20;;
8610;SDS011;4343;53.648;10.098;2022-08-01T02:02:36;7.15;;;6.65;;
8610;SDS011;4343;53.648;10.098;2022-08-01T02:05:03;6.57;;;6.18;;
8610;SDS011;4343;53.648;10.098;2022-08-01T02:07:34;6.57;;;6.18;;
8610;SDS011;4343;53.648;10.098;2022-08-01T02:10:02;6.60;;;6.20;;
8610;SDS011;4343;53.648;10.098;2022-08-01T02:12:29;6.75;;;6.05;;
8610;SDS011;4343;53.648;10.098;2022-08-01T02:15:00;6.55;;;6.05;;
8610;SDS011;4343;53.648;10.098;2022-08-01T02:17:28;5.38;;;5.07;;
8610;SDS011;4343;53.648;10.098;2022-08-01T02:19:55;5.32;;;5.00;;
8610;SDS011;4343;53.648;10.098;2022-08-01T02:22:36;5.45;;;5.05;;
8610;SDS011;4343;53.648;10.098;2022-08-01T02:25:09;4.65;;;4.45;;
8610;SDS011;4343;53.648;10.098;2022-08-01T02:38:09;5.88;;;5.35;;
8610;SDS011;4343;53.648;10.098;2022-08-01T02:41:41;4.57;;;4.38;;
8610;SDS011;4343;53.648;10.098;2022-08-01T02:51:56;4.85;;;4.65;;
8610;SDS011;4343;53.648;10.098;2022-08-01T03:02:16;5.30;;;4.95;;
8610;SDS011;4343;53.648;10.098;2022-08-01T03:05:36;5.30;;;4.90;;
8610;SDS011;4343;53.648;10.098;2022-08-01T03:09:18;4.20;;;4.03;;
8610;SDS011;4343;53.648;10.098;2022-08-01T03:12:42;5.00;;;4.70;;
8610;SDS011;4343;53.648;10.098;2022-08-01T03:16:11;4.88;;;4.55;;
8610;SDS011;4343;53.648;10.098;2022-08-01T03:20:06;4.72;;;4.43;;
8610;SDS011;4343;53.648;10.098;2022-08-01T03:23:36;5.28;;;4.97;;
8610;SDS011;4343;53.648;10.098;2022-08-01T03:30:24;5.15;;;4.75;;
8610;SDS011;4343;53.648;10.098;2022-08-01T03:50:52;4.80;;;4.50;;
8610;SDS011;4343;53.648;10.098;2022-08-01T04:01:07;5.10;;;4.70;;
8610;SDS011;4343;53.648;10.098;2022-08-01T04:47:45;4.32;;;3.92;;
8610;SDS011;4343;53.648;10.098;2022-08-01T04:57:51;3.83;;;3.53;;
8610;SDS011;4343;53.648;10.098;2022-08-01T05:04:49;3.60;;;3.30;;
8610;SDS011;4343;53.648;10.098;2022-08-01T05:15:26;3.47;;;3.10;;
8610;SDS011;4343;53.648;10.098;2022-08-01T05:18:56;2.83;;;2.72;;
8610;SDS011;4343;53.648;10.098;2022-08-01T05:25:51;2.83;;;2.03;;
8610;SDS011;4343;53.648;10.098;2022-08-01T06:25:21;2.63;;;2.00;;
8610;SDS011;4343;53.648;10.098;2022-08-01T06:35:59;6.05;;;1.90;;
8610;SDS011;4343;53.648;10.098;2022-08-01T07:48:32;5.90;;;3.10;;
8610;SDS011;4343;53.648;10.098;2022-08-01T07:55:57;4.15;;;2.70;;
8610;SDS011;4343;53.648;10.098;2022-08-01T08:03:06;3.15;;;2.63;;
8610;SDS011;4343;53.648;10.098;2022-08-01T08:54:58;4.75;;;2.70;;
8610;SDS011;4343;53.648;10.098;2022-08-01T08:58:30;4.30;;;2.63;;
8610;SDS011;4343;53.648;10.098;2022-08-01T09:16:20;3.75;;;2.30;;
8610;SDS011;4343;53.648;10.098;2022-08-01T09:40:56;4.43;;;2.35;;
8610;SDS011;4343;53.648;10.098;2022-08-01T09:44:59;3.58;;;2.50;;
8610;SDS011;4343;53.648;10.098;2022-08-01T09:51:57;4.22;;;2.20;;
8610;SDS011;4343;53.648;10.098;2022-08-01T10:35:10;2.80;;;2.03;;
8610;SDS011;4343;53.648;10.098;2022-08-01T10:38:36;4.07;;;2.28;;
8610;SDS011;4343;53.648;10.098;2022-08-01T10:45:16;3.92;;;2.28;;
8610;SDS011;4343;53.648;10.098;2022-08-01T10:51:46;4.13;;;2.08;;
8610;SDS011;4343;53.648;10.098;2022-08-01T10:54:12;3.63;;;2.08;;
8610;SDS011;4343;53.648;10.098;2022-08-01T10:56:48;2.88;;;2.00;;
8610;SDS011;4343;53.648;10.098;2022-08-01T10:59:25;4.55;;;2.25;;
8610;SDS011;4343;53.648;10.098;2022-08-01T11:01:59;5.55;;;2.10;;
8610;SDS011;4343;53.648;10.098;2022-08-01T11:04:33;2.88;;;2.10;;
8610;SDS011;4343;53.648;10.098;2022-08-01T11:07:52;3.17;;;2.10;;
8610;SDS011;4343;53.648;10.098;2022-08-01T11:10:21;2.20;;;1.83;;
8610;SDS011;4343;53.648;10.098;2022-08-01T11:12:50;4.30;;;2.17;;
8610;SDS011;4343;53.648;10.098;2022-08-01T11:15:16;2.50;;;2.00;;
8610;SDS011;4343;53.648;10.098;2022-08-01T11:17:49;3.40;;;2.03;;
8610;SDS011;4343;53.648;10.098;2022-08-01T11:20:17;4.20;;;2.55;;
8610;SDS011;4343;53.648;10.098;2022-08-01T11:25:25;3.78;;;1.95;;
8610;SDS011;4343;53.648;10.098;2022-08-01T11:30:46;4.18;;;2.20;;
8610;SDS011;4343;53.648;10.098;2022-08-01T11:33:14;3.22;;;1.92;;
8610;SDS011;4343;53.648;10.098;2022-08-01T11:38:38;3.53;;;2.03;;
8610;SDS011;4343;53.648;10.098;2022-08-01T11:41:23;2.70;;;2.00;;
8610;SDS011;4343;53.648;10.098;2022-08-01T11:49:25;3.55;;;1.88;;
8610;SDS011;4343;53.648;10.098;2022-08-01T11:52:00;3.75;;;2.00;;
8610;SDS011;4343;53.648;10.098;2022-08-01T11:57:22;5.28;;;1.73;;
8610;SDS011;4343;53.648;10.098;2022-08-01T11:59:52;2.08;;;1.77;;
8610;SDS011;4343;53.648;10.098;2022-08-01T12:02:20;2.13;;;1.92;;
8610;SDS011;4343;53.648;10.098;2022-08-01T12:04:56;2.65;;;1.60;;
8610;SDS011;4343;53.648;10.098;2022-08-01T12:07:28;4.07;;;1.98;;
8610;SDS011;4343;53.648;10.098;2022-08-01T12:10:11;5.00;;;2.10;;
8610;SDS011;4343;53.648;10.098;2022-08-01T12:12:46;2.10;;;1.90;;
8610;SDS011;4343;53.648;10.098;2022-08-01T12:15:19;3.92;;;1.92;;
8610;SDS011;4343;53.648;10.098;2022-08-01T12:17:48;2.88;;;1.85;;
8610;SDS011;4343;53.648;10.098;2022-08-01T12:20:15;4.80;;;2.50;;
8610;SDS011;4343;53.648;10.098;2022-08-01T12:22:45;5.95;;;2.17;;
8610;SDS011;4343;53.648;10.098;2022-08-01T12:25:12;4.70;;;2.28;;
8610;SDS011;4343;53.648;10.098;2022-08-01T12:27:40;4.07;;;2.17;;
8610;SDS011;4343;53.648;10.098;2022-08-01T12:30:11;3.15;;;1.73;;
8610;SDS011;4343;53.648;10.098;2022-08-01T12:32:40;2.88;;;1.92;;
8610;SDS011;4343;53.648;10.098;2022-08-01T12:35:08;3.88;;;1.63;;
8610;SDS011;4343;53.648;10.098;2022-08-01T12:37:39;3.72;;;2.33;;
8610;SDS011;4343;53.648;10.098;2022-08-01T12:40:09;2.72;;;1.70;;
8610;SDS011;4343;53.648;10.098;2022-08-01T12:42:39;1.98;;;1.67;;
8610;SDS011;4343;53.648;10.098;2022-08-01T12:45:07;2.25;;;1.67;;
8610;SDS011;4343;53.648;10.098;2022-08-01T12:47:35;2.55;;;1.70;;
8610;SDS011;4343;53.648;10.098;2022-08-01T12:50:02;2.95;;;1.65;;
8610;SDS011;4343;53.648;10.098;2022-08-01T12:52:33;3.28;;;1.55;;
8610;SDS011;4343;53.648;10.098;2022-08-01T12:55:04;2.33;;;1.83;;
8610;SDS011;4343;53.648;10.098;2022-08-01T12:57:41;2.10;;;1.63;;
8610;SDS011;4343;53.648;10.098;2022-08-01T13:00:22;2.20;;;2.00;;
8610;SDS011;4343;53.648;10.098;2022-08-01T13:02:49;2.30;;;1.65;;
8610;SDS011;4343;53.648;10.098;2022-08-01T13:05:24;2.38;;;1.67;;
8610;SDS011;4343;53.648;10.098;2022-08-01T13:07:50;2.75;;;1.70;;
8610;SDS011;4343;53.648;10.098;2022-08-01T13:10:24;1.52;;;1.42;;
8610;SDS011;4343;53.648;10.098;2022-08-01T13:12:52;2.17;;;1.67;;
8610;SDS011;4343;53.648;10.098;2022-08-01T13:15:30;1.98;;;1.67;;
8610;SDS011;4343;53.648;10.098;2022-08-01T13:17:57;2.95;;;1.75;;
8610;SDS011;4343;53.648;10.098;2022-08-01T13:20:29;2.22;;;1.55;;
8610;SDS011;4343;53.648;10.098;2022-08-01T13:23:09;1.67;;;1.33;;
8610;SDS011;4343;53.648;10.098;2022-08-01T13:25:46;3.63;;;1.83;;
8610;SDS011;4343;53.648;10.098;2022-08-01T13:30:53;1.40;;;1.30;;
8610;SDS011;4343;53.648;10.098;2022-08-01T13:33:46;3.33;;;2.15;;
8610;SDS011;4343;53.648;10.098;2022-08-01T13:36:12;4.43;;;1.40;;
8610;SDS011;4343;53.648;10.098;2022-08-01T13:38:39;2.65;;;2.20;;
8610;SDS011;4343;53.648;10.098;2022-08-01T13:41:24;3.65;;;1.75;;
8610;SDS011;4343;53.648;10.098;2022-08-01T13:43:50;1.48;;;1.38;;
8610;SDS011;4343;53.648;10.098;2022-08-01T13:46:15;2.13;;;1.50;;
8610;SDS011;4343;53.648;10.098;2022-08-01T13:48:41;2.95;;;1.60;;
8610;SDS011;4343;53.648;10.098;2022-08-01T13:51:07;2.53;;;1.83;;
8610;SDS011;4343;53.648;10.098;2022-08-01T13:53:32;3.72;;;1.88;;
8610;SDS011;4343;53.648;10.098;2022-08-01T13:55:58;2.90;;;1.75;;
8610;SDS011;4343;53.648;10.098;2022-08-01T13:58:24;1.50;;;1.40;;
8610;SDS011;4343;53.648;10.098;2022-08-01T14:00:49;2.60;;;1.63;;
8610;SDS011;4343;53.648;10.098;2022-08-01T14:03:15;1.80;;;1.45;;
8610;SDS011;4343;53.648;10.098;2022-08-01T14:05:41;2.55;;;1.65;;
8610;SDS011;4343;53.648;10.098;2022-08-01T14:08:08;4.47;;;2.05;;
8610;SDS011;4343;53.648;10.098;2022-08-01T14:10:33;2.05;;;1.80;;
8610;SDS011;4343;53.648;10.098;2022-08-01T14:12:59;1.60;;;1.40;;
8610;SDS011;4343;53.648;10.098;2022-08-01T14:15:25;2.10;;;1.70;;
8610;SDS011;4343;53.648;10.098;2022-08-01T14:17:50;1.60;;;1.50;;
8610;SDS011;4343;53.648;10.098;2022-08-01T14:20:16;1.90;;;1.75;;
8610;SDS011;4343;53.648;10.098;2022-08-01T14:22:44;2.58;;;1.40;;
8610;SDS011;4343;53.648;10.098;2022-08-01T14:25:10;3.97;;;2.28;;
8610;SDS011;4343;53.648;10.098;2022-08-01T14:27:36;3.35;;;1.55;;
8610;SDS011;4343;53.648;10.098;2022-08-01T14:30:02;2.65;;;1.65;;
8610;SDS011;4343;53.648;10.098;2022-08-01T14:32:28;2.33;;;1.92;;
8610;SDS011;4343;53.648;10.098;2022-08-01T14:34:55;2.00;;;1.67;;
8610;SDS011;4343;53.648;10.098;2022-08-01T14:37:21;4.90;;;1.85;;
8610;SDS011;4343;53.648;10.098;2022-08-01T14:39:47;1.88;;;1.75;;
8610;SDS011;4343;53.648;10.098;2022-08-01T14:42:12;1.58;;;1.48;;
8610;SDS011;4343;53.648;10.098;2022-08-01T14:44:38;2.83;;;1.80;;
8610;SDS011;4343;53.648;10.098;2022-08-01T14:47:04;3.97;;;2.08;;
8610;SDS011;4343;53.648;10.098;2022-08-01T14:49:29;2.63;;;1.50;;
8610;SDS011;4343;53.648;10.098;2022-08-01T14:51:55;4.25;;;1.77;;
8610;SDS011;4343;53.648;10.098;2022-08-01T14:54:20;2.55;;;1.50;;
8610;SDS011;4343;53.648;10.098;2022-08-01T14:56:46;3.08;;;2.03;;
8610;SDS011;4343;53.648;10.098;2022-08-01T14:59:12;3.08;;;1.77;;
8610;SDS011;4343;53.648;10.098;2022-08-01T15:01:37;4.40;;;1.70;;
8610;SDS011;4343;53.648;10.098;2022-08-01T15:04:03;3.38;;;1.67;;
8610;SDS011;4343;53.648;10.098;2022-08-01T15:06:28;3.55;;;1.95;;
8610;SDS011;4343;53.648;10.098;2022-08-01T15:08:54;2.05;;;1.75;;
8610;SDS011;4343;53.648;10.098;2022-08-01T15:11:20;2.13;;;1.77;;
8610;SDS011;4343;53.648;10.098;2022-08-01T15:13:45;3.95;;;1.90;;
8610;SDS011;4343;53.648;10.098;2022-08-01T15:16:31;2.88;;;1.70;;
8610;SDS011;4343;53.648;10.098;2022-08-01T15:18:56;2.22;;;1.70;;
8610;SDS011;4343;53.648;10.098;2022-08-01T15:21:22;2.30;;;1.30;;
8610;SDS011;4343;53.648;10.098;2022-08-01T15:23:47;4.45;;;1.73;;
8610;SDS011;4343;53.648;10.098;2022-08-01T15:26:13;4.43;;;2.10;;
8610;SDS011;4343;53.648;10.098;2022-08-01T15:28:38;3.05;;;1.88;;
8610;SDS011;4343;53.648;10.098;2022-08-01T15:31:04;3.97;;;1.90;;
8610;SDS011;4343;53.648;10.098;2022-08-01T15:33:29;5.32;;;2.10;;
8610;SDS011;4343;53.648;10.098;2022-08-01T15:35:55;4.38;;;1.95;;
8610;SDS011;4343;53.648;10.098;2022-08-01T15:38:20;3.55;;;1.90;;
8610;SDS011;4343;53.648;10.098;2022-08-01T15:40:46;4.38;;;1.92;;
8610;SDS011;4343;53.648;10.098;2022-08-01T15:43:12;4.65;;;2.03;;
8610;SDS011;4343;53.648;10.098;2022-08-01T15:45:38;3.53;;;2.00;;
8610;SDS011;4343;53.648;10.098;2022-08-01T15:48:03;4.57;;;2.35;;
8610;SDS011;4343;53.648;10.098;2022-08-01T15:50:29;4.32;;;2.20;;
8610;SDS011;4343;53.648;10.098;2022-08-01T15:52:55;4.28;;;1.88;;
8610;SDS011;4343;53.648;10.098;2022-08-01T15:55:20;3.58;;;2.17;;
8610;SDS011;4343;53.648;10.098;2022-08-01T15:57:46;2.58;;;1.92;;
8610;SDS011;4343;53.648;10.098;2022-08-01T16:00:11;4.80;;;1.45;;
8610;SDS011;4343;53.648;10.098;2022-08-01T16:02:38;3.33;;;1.95;;
8610;SDS011;4343;53.648;10.098;2022-08-01T16:05:04;3.47;;;2.65;;
8610;SDS011;4343;53.648;10.098;2022-08-01T16:07:30;3.63;;;1.95;;
8610;SDS011;4343;53.648;10.098;2022-08-01T16:09:56;4.93;;;2.28;;
8610;SDS011;4343;53.648;10.098;2022-08-01T16:12:21;2.42;;;1.70;;
8610;SDS011;4343;53.648;10.098;2022-08-01T16:14:47;3.90;;;2.05;;
8610;SDS011;4343;53.648;10.098;2022-08-01T16:17:12;4.60;;;2.25;;
8610;SDS011;4343;53.648;10.098;2022-08-01T16:19:38;4.05;;;1.77;;
8610;SDS011;4343;53.648;10.098;2022-08-01T16:22:04;4.00;;;2.05;;
8610;SDS011;4343;53.648;10.098;2022-08-01T16:24:30;3.90;;;2.00;;
8610;SDS011;4343;53.648;10.098;2022-08-01T16:26:56;3.20;;;2.28;;
8610;SDS011;4343;53.648;10.098;2022-08-01T16:29:22;3.53;;;2.30;;
8610;SDS011;4343;53.648;10.098;2022-08-01T16:31:47;4.78;;;1.75;;
8610;SDS011;4343;53.648;10.098;2022-08-01T16:34:13;3.50;;;2.03;;
8610;SDS011;4343;53.648;10.098;2022-08-01T16:36:38;3.17;;;2.15;;
8610;SDS011;4343;53.648;10.098;2022-08-01T16:39:04;8.20;;;2.65;;
8610;SDS011;4343;53.648;10.098;2022-08-01T16:41:31;5.80;;;2.33;;
8610;SDS011;4343;53.648;10.098;2022-08-01T16:43:57;3.85;;;1.95;;
8610;SDS011;4343;53.648;10.098;2022-08-01T16:46:23;4.50;;;2.10;;
8610;SDS011;4343;53.648;10.098;2022-08-01T16:48:49;5.97;;;2.17;;
8610;SDS011;4343;53.648;10.098;2022-08-01T16:51:15;2.83;;;2.00;;
8610;SDS011;4343;53.648;10.098;2022-08-01T16:53:40;2.78;;;2.08;;
8610;SDS011;4343;53.648;10.098;2022-08-01T16:56:06;3.40;;;2.20;;
8610;SDS011;4343;53.648;10.098;2022-08-01T16:58:32;4.72;;;2.25;;
8610;SDS011;4343;53.648;10.098;2022-08-01T17:00:57;3.90;;;2.05;;
8610;SDS011;4343;53.648;10.098;2022-08-01T17:03:23;4.78;;;2.38;;
8610;SDS011;4343;53.648;10.098;2022-08-01T17:05:49;4.35;;;1.95;;
8610;SDS011;4343;53.648;10.098;2022-08-01T17:08:15;3.75;;;2.28;;
8610;SDS011;4343;53.648;10.098;2022-08-01T17:10:41;5.03;;;2.13;;
8610;SDS011;4343;53.648;10.098;2022-08-01T17:13:06;2.72;;;1.88;;
8610;SDS011;4343;53.648;10.098;2022-08-01T17:15:32;4.00;;;2.10;;
8610;SDS011;4343;53.648;10.098;2022-08-01T17:17:59;4.10;;;2.03;;
8610;SDS011;4343;53.648;10.098;2022-08-01T17:20:26;3.75;;;2.30;;
8610;SDS011;4343;53.648;10.098;2022-08-01T17:22:51;3.22;;;2.13;;
8610;SDS011;4343;53.648;10.098;2022-08-01T17:25:17;3.05;;;2.10;;
8610;SDS011;4343;53.648;10.098;2022-08-01T17:27:43;2.72;;;2.13;;
8610;SDS011;4343;53.648;10.098;2022-08-01T17:30:09;3.45;;;1.92;;
8610;SDS011;4343;53.648;10.098;2022-08-01T17:32:37;4.38;;;1.95;;
8610;SDS011;4343;53.648;10.098;2022-08-01T17:35:05;3.30;;;1.77;;
8610;SDS011;4343;53.648;10.098;2022-08-01T17:37:32;4.30;;;2.17;;
8610;SDS011;4343;53.648;10.098;2022-08-01T17:39:57;4.45;;;2.38;;
8610;SDS011;4343;53.648;10.098;2022-08-01T17:42:23;3.65;;;2.25;;
8610;SDS011;4343;53.648;10.098;2022-08-01T17:44:51;5.63;;;1.80;;
8610;SDS011;4343;53.648;10.098;2022-08-01T17:47:16;3.97;;;1.95;;
8610;SDS011;4343;53.648;10.098;2022-08-01T17:49:42;3.22;;;1.80;;
8610;SDS011;4343;53.648;10.098;2022-08-01T17:52:07;2.08;;;1.77;;
8610;SDS011;4343;53.648;10.098;2022-08-01T17:54:33;6.03;;;1.85;;
8610;SDS011;4343;53.648;10.098;2022-08-01T17:56:58;4.07;;;2.03;;
8610;SDS011;4343;53.648;10.098;2022-08-01T17:59:24;5.13;;;1.88;;
8610;SDS011;4343;53.648;10.098;2022-08-01T18:01:50;3.97;;;1.92;;
8610;SDS011;4343;53.648;10.098;2022-08-01T18:04:15;5.10;;;1.85;;
8610;SDS011;4343;53.648;10.098;2022-08-01T18:06:41;3.47;;;1.80;;
8610;SDS011;4343;53.648;10.098;2022-08-01T18:09:07;2.97;;;1.80;;
8610;SDS011;4343;53.648;10.098;2022-08-01T18:11:33;4.38;;;2.15;;
8610;SDS011;4343;53.648;10.098;2022-08-01T18:13:59;2.20;;;1.73;;
8610;SDS011;4343;53.648;10.098;2022-08-01T18:16:24;3.35;;;2.38;;
8610;SDS011;4343;53.648;10.098;2022-08-01T18:18:50;3.30;;;1.80;;
8610;SDS011;4343;53.648;10.098;2022-08-01T18:21:16;2.92;;;1.80;;
8610;SDS011;4343;53.648;10.098;2022-08-01T18:23:41;4.82;;;1.80;;
8610;SDS011;4343;53.648;10.098;2022-08-01T18:26:07;1.77;;;1.40;;
8610;SDS011;4343;53.648;10.098;2022-08-01T18:28:33;3.17;;;1.92;;
8610;SDS011;4343;53.648;10.098;2022-08-01T18:31:05;1.63;;;1.52;;
8610;SDS011;4343;53.648;10.098;2022-08-01T18:33:31;4.18;;;2.10;;
8610;SDS011;4343;53.648;10.098;2022-08-01T18:35:57;3.20;;;2.00;;
8610;SDS011;4343;53.648;10.098;2022-08-01T18:38:22;4.43;;;2.08;;
8610;SDS011;4343;53.648;10.098;2022-08-01T18:40:48;5.45;;;2.33;;
8610;SDS011;4343;53.648;10.098;2022-08-01T18:43:13;4.90;;;2.08;;
8610;SDS011;4343;53.648;10.098;2022-08-01T18:45:40;3.20;;;1.90;;
8610;SDS011;4343;53.648;10.098;2022-08-01T18:48:05;3.90;;;2.15;;
8610;SDS011;4343;53.648;10.098;2022-08-01T18:50:31;4.45;;;2.25;;
8610;SDS011;4343;53.648;10.098;2022-08-01T18:52:57;4.38;;;1.95;;
8610;SDS011;4343;53.648;10.098;2022-08-01T18:55:22;4.10;;;2.08;;
8610;SDS011;4343;53.648;10.098;2022-08-01T18:57:48;4.80;;;2.00;;
8610;SDS011;4343;53.648;10.098;2022-08-01T19:00:14;2.38;;;1.75;;
8610;SDS011;4343;53.648;10.098;2022-08-01T19:02:40;3.63;;;1.63;;
8610;SDS011;4343;53.648;10.098;2022-08-01T19:05:06;4.68;;;2.00;;
8610;SDS011;4343;53.648;10.098;2022-08-01T19:07:33;2.42;;;1.60;;
8610;SDS011;4343;53.648;10.098;2022-08-01T19:09:58;2.78;;;1.90;;
8610;SDS011;4343;53.648;10.098;2022-08-01T19:12:24;3.60;;;1.88;;
8610;SDS011;4343;53.648;10.098;2022-08-01T19:14:49;3.20;;;1.40;;
8610;SDS011;4343;53.648;10.098;2022-08-01T19:17:15;5.63;;;1.85;;
8610;SDS011;4343;53.648;10.098;2022-08-01T19:19:41;3.72;;;1.65;;
8610;SDS011;4343;53.648;10.098;2022-08-01T19:22:06;4.50;;;2.33;;
8610;SDS011;4343;53.648;10.098;2022-08-01T19:24:32;4.78;;;1.85;;
8610;SDS011;4343;53.648;10.098;2022-08-01T19:26:59;4.07;;;2.10;;
8610;SDS011;4343;53.648;10.098;2022-08-01T19:29:31;4.45;;;1.92;;
8610;SDS011;4343;53.648;10.098;2022-08-01T19:31:59;4.13;;;1.70;;
8610;SDS011;4343;53.648;10.098;2022-08-01T19:34:25;3.42;;;2.50;;
8610;SDS011;4343;53.648;10.098;2022-08-01T19:36:53;4.10;;;1.98;;
8610;SDS011;4343;53.648;10.098;2022-08-01T19:39:23;3.95;;;1.60;;
8610;SDS011;4343;53.648;10.098;2022-08-01T19:41:51;5.32;;;1.85;;
8610;SDS011;4343;53.648;10.098;2022-08-01T19:44:20;2.65;;;1.67;;
8610;SDS011;4343;53.648;10.098;2022-08-01T19:46:48;3.17;;;1.85;;
8610;SDS011;4343;53.648;10.098;2022-08-01T19:49:15;5.22;;;2.05;;
8610;SDS011;4343;53.648;10.098;2022-08-01T19:51:45;5.43;;;2.35;;
8610;SDS011;4343;53.648;10.098;2022-08-01T19:54:17;5.13;;;2.25;;
8610;SDS011;4343;53.648;10.098;2022-08-01T19:56:44;3.35;;;1.95;;
8610;SDS011;4343;53.648;10.098;2022-08-01T19:59:18;2.35;;;1.60;;
8610;SDS011;4343;53.648;10.098;2022-08-01T20:01:45;3.50;;;2.10;;
8610;SDS011;4343;53.648;10.098;2022-08-01T20:04:13;2.20;;;1.60;;
8610;SDS011;4343;53.648;10.098;2022-08-01T20:06:40;4.07;;;1.88;;
8610;SDS011;4343;53.648;10.098;2022-08-01T20:09:06;1.83;;;1.55;;
8610;SDS011;4343;53.648;10.098;2022-08-01T20:11:32;3.67;;;1.70;;
8610;SDS011;4343;53.648;10.098;2022-08-01T20:13:58;2.45;;;1.60;;
8610;SDS011;4343;53.648;10.098;2022-08-01T20:16:25;4.55;;;1.67;;
8610;SDS011;4343;53.648;10.098;2022-08-01T20:18:52;2.42;;;1.90;;
8610;SDS011;4343;53.648;10.098;2022-08-01T20:21:19;4.38;;;1.70;;
8610;SDS011;4343;53.648;10.098;2022-08-01T20:23:46;4.60;;;1.90;;
8610;SDS011;4343;53.648;10.098;2022-08-01T20:26:14;2.95;;;2.15;;
8610;SDS011;4343;53.648;10.098;2022-08-01T20:28:43;4.00;;;2.03;;
8610;SDS011;4343;53.648;10.098;2022-08-01T20:31:11;2.90;;;1.95;;
8610;SDS011;4343;53.648;10.098;2022-08-01T20:33:38;3.58;;;1.50;;
8610;SDS011;4343;53.648;10.098;2022-08-01T20:36:05;3.00;;;1.73;;
8610;SDS011;4343;53.648;10.098;2022-08-01T20:38:31;3.45;;;1.70;;
8610;SDS011;4343;53.648;10.098;2022-08-01T20:40:59;2.03;;;1.67;;
8610;SDS011;4343;53.648;10.098;2022-08-01T20:43:27;3.90;;;1.63;;
8610;SDS011;4343;53.648;10.098;2022-08-01T20:45:53;2.65;;;1.75;;
8610;SDS011;4343;53.648;10.098;2022-08-01T20:48:19;3.70;;;1.98;;
8610;SDS011;4343;53.648;10.098;2022-08-01T20:50:45;2.08;;;1.65;;
8610;SDS011;4343;53.648;10.098;2022-08-01T20:53:31;3.05;;;2.10;;
8610;SDS011;4343;53.648;10.098;2022-08-01T20:56:44;3.92;;;2.33;;
8610;SDS011;4343;53.648;10.098;2022-08-01T20:59:23;2.60;;;1.63;;
8610;SDS011;4343;53.648;10.098;2022-08-01T21:02:03;2.20;;;1.52;;
8610;SDS011;4343;53.648;10.098;2022-08-01T21:05:03;3.08;;;1.88;;
8610;SDS011;4343;53.648;10.098;2022-08-01T21:10:35;2.83;;;1.50;;
8610;SDS011;4343;53.648;10.098;2022-08-01T21:13:04;2.63;;;1.40;;
8610;SDS011;4343;53.648;10.098;2022-08-01T21:18:14;3.95;;;1.80;;
8610;SDS011;4343;53.648;10.098;2022-08-01T21:26:07;2.70;;;1.50;;
8610;SDS011;4343;53.648;10.098;2022-08-01T21:28:33;4.55;;;1.98;;
8610;SDS011;4343;53.648;10.098;2022-08-01T21:31:00;2.92;;;1.75;;
8610;SDS011;4343;53.648;10.098;2022-08-01T21:33:28;1.35;;;1.30;;
8610;SDS011;4343;53.648;10.098;2022-08-01T21:35:54;2.05;;;1.50;;
8610;SDS011;4343;53.648;10.098;2022-08-01T21:38:22;4.35;;;1.75;;
8610;SDS011;4343;53.648;10.098;2022-08-01T21:40:48;2.78;;;1.55;;
8610;SDS011;4343;53.648;10.098;2022-08-01T21:43:15;2.00;;;1.50;;
8610;SDS011;4343;53.648;10.098;2022-08-01T21:45:41;3.85;;;1.77;;
8610;SDS011;4343;53.648;10.098;2022-08-01T21:48:07;2.70;;;2.30;;
8610;SDS011;4343;53.648;10.098;2022-08-01T21:50:39;3.20;;;2.15;;
8610;SDS011;4343;53.648;10.098;2022-08-01T21:53:29;2.42;;;2.00;;
8610;SDS011;4343;53.648;10.098;2022-08-01T21:56:06;2.43;;;1.90;;
8610;SDS011;4343;53.648;10.098;2022-08-01T21:58:57;2.10;;;1.90;;
8610;SDS011;4343;53.648;10.098;2022-08-01T22:04:16;2.20;;;1.95;;
8610;SDS011;4343;53.648;10.098;2022-08-01T22:06:43;2.47;;;2.17;;
8610;SDS011;4343;53.648;10.098;2022-08-01T22:09:12;2.83;;;2.00;;
8610;SDS011;4343;53.648;10.098;2022-08-01T22:11:39;2.80;;;1.95;;
8610;SDS011;4343;53.648;10.098;2022-08-01T22:14:07;2.70;;;2.00;;
8610;SDS011;4343;53.648;10.098;2022-08-01T22:16:37;2.50;;;2.10;;
8610;SDS011;4343;53.648;10.098;2022-08-01T22:19:06;3.65;;;2.00;;
8610;SDS011;4343;53.648;10.098;2022-08-01T22:21:37;2.40;;;1.70;;
8610;SDS011;4343;53.648;10.098;2022-08-01T22:24:03;2.10;;;1.90;;
8610;SDS011;4343;53.648;10.098;2022-08-01T22:26:30;2.60;;;1.98;;
8610;SDS011;4343;53.648;10.098;2022-08-01T22:29:01;2.60;;;1.97;;
8610;SDS011;4343;53.648;10.098;2022-08-01T22:31:27;2.83;;;1.90;;
8610;SDS011;4343;53.648;10.098;2022-08-01T22:33:53;2.67;;;1.80;;
8610;SDS011;4343;53.648;10.098;2022-08-01T22:36:19;1.98;;;1.88;;
8610;SDS011;4343;53.648;10.098;2022-08-01T22:38:45;2.65;;;2.08;;
8610;SDS011;4343;53.648;10.098;2022-08-01T22:41:18;2.10;;;1.90;;
8610;SDS011;4343;53.648;10.098;2022-08-01T22:44:03;2.17;;;1.98;;
8610;SDS011;4343;53.648;10.098;2022-08-01T22:52:19;2.00;;;1.90;;
8610;SDS011;4343;53.648;10.098;2022-08-01T22:54:54;2.88;;;1.70;;
8610;SDS011;4343;53.648;10.098;2022-08-01T22:57:41;2.78;;;1.70;;